Data for 02/20/2017

Time Sea-Level Adjusted Pressure Absolute Pressure Temperature Relative Humidity Dew Point   
(mb) (inHg) (mb) (inHg) (C) (F) (%) (C) (F)
00:05 1010 29.83 840 24.81 2.5 36.5 46 -7.9 17.7
00:10 1010 29.83 840 24.81 2.4 36.4 46 -8 17.6
00:15 1010 29.83 840 24.81 2.5 36.5 45 -8.2 17.2
00:20 1010 29.83 840 24.81 2.6 36.7 44 -8.4 16.9
00:25 1010 29.83 840 24.81 2.6 36.6 47 -7.7 18.1
00:30 1011 29.85 840 24.81 2 35.6 49 -7.5 18.5
00:35 1011 29.85 840 24.81 1.7 35.1 48 -8 17.5
00:40 1011 29.85 840 24.81 1.9 35.4 47 -8.4 16.9
00:45 1011 29.85 840 24.81 2.1 35.8 47 -8.2 17.3
00:50 1011 29.85 840 24.81 2.2 35.9 46 -8.3 17
00:55 1010 29.83 840 24.81 2.3 36.1 45 -8.4 16.8
01:00 1011 29.85 840 24.81 2.3 36.2 45 -8.4 17
01:05 1011 29.85 840 24.81 2.3 36.2 45 -8.4 16.8
01:10 1011 29.85 840 24.81 2.3 36.1 46 -8.2 17.2
01:15 1011 29.85 840 24.81 2.3 36.1 45 -8.5 16.7
01:20 1011 29.85 840 24.81 2.2 35.9 45 -8.5 16.7
01:25 1011 29.85 840 24.81 2.3 36.1 42 -9.4 15
01:30 1011 29.85 840 24.81 2.7 36.9 40 -9.7 14.5
01:35 1010 29.83 840 24.81 3 37.3 39 -9.7 14.6
01:40 1010 29.83 840 24.81 2.9 37.2 41 -9.3 15.3
01:45 1010 29.83 840 24.81 2.6 36.7 44 -8.5 16.7
01:50 1010 29.83 840 24.81 2.1 35.7 46 -8.4 17
01:55 1011 29.85 840 24.81 1.9 35.5 43 -9.2 15.4
02:00 1011 29.85 840 24.81 2.2 35.9 42 -9.6 14.8
02:05 1011 29.85 840 24.81 2.1 35.8 43 -9.3 15.2
02:10 1011 29.85 840 24.81 2 35.6 43 -9.3 15.3
02:15 1011 29.85 840 24.81 1.9 35.4 43 -9.4 15.1
02:20 1011 29.85 840 24.81 1.7 35.1 46 -8.8 16.2
02:25 1011 29.85 840 24.81 1.3 34.3 46 -9.2 15.5
02:30 1011 29.85 840 24.81 1.1 34 46 -9.1 15.6
02:35 1011 29.85 840 24.81 1.1 33.9 46 -9.4 15
02:40 1011 29.85 840 24.81 1.2 34.1 46 -9.2 15.5
02:45 1011 29.85 840 24.81 1.2 34.2 45 -9.6 14.8
02:50 1011 29.85 840 24.81 1.4 34.5 43 -9.7 14.5
02:55 1011 29.85 840 24.81 1.5 34.8 43 -9.9 14.2
03:00 1011 29.85 840 24.81 1.7 35.1 45 -8.9 16
03:05 1011 29.85 840 24.81 1.4 34.6 45 -9.2 15.4
03:10 1011 29.85 840 24.81 1.4 34.4 45 -9.4 15.2
03:15 1011 29.85 840 24.81 1.5 34.6 46 -9.1 15.6
03:20 1011 29.85 840 24.81 1.4 34.6 45 -9.2 15.4
03:25 1011 29.85 840 24.81 1.4 34.5 45 -9.2 15.5
03:30 1011 29.85 840 24.81 1.3 34.4 46 -9 15.7
03:35 1011 29.85 840 24.81 1.1 34 49 -8.5 16.8
03:40 1011 29.85 840 24.81 0.8 33.5 48 -8.9 16
03:45 1011 29.85 840 24.81 0.9 33.5 49 -8.6 16.4
03:50 1011 29.85 840 24.81 0.8 33.4 50 -8.5 16.6
03:55 1011 29.85 840 24.81 0.6 33.2 51 -8.4 16.8
04:00 1011 29.85 840 24.81 0.4 32.7 51 -8.5 16.7
04:05 1011 29.85 840 24.81 0.4 32.8 51 -8.6 16.5
04:10 1011 29.85 840 24.81 0.3 32.5 53 -8.2 17.2
04:15 1011 29.85 840 24.81 0.2 32.4 52 -8.5 16.7
04:20 1011 29.85 840 24.81 0.4 32.6 51 -8.7 16.4
04:25 1011 29.85 840 24.81 0.5 32.9 51 -8.6 16.6
04:30 1011 29.85 840 24.81 0.8 33.4 49 -8.8 16.2
04:35 1011 29.85 840 24.81 0.8 33.5 50 -8.5 16.7
04:40 1011 29.85 840 24.81 0.8 33.4 50 -8.6 16.5
04:45 1011 29.85 840 24.81 0.8 33.4 50 -8.6 16.5
04:50 1011 29.85 840 24.81 0.8 33.4 50 -8.5 16.6
04:55 1011 29.85 840 24.81 0.8 33.4 49 -8.9 16
05:00 1011 29.85 840 24.81 1.1 33.9 48 -8.7 16.4
05:05 1011 29.85 840 24.81 1 33.7 49 -8.5 16.7
05:10 1011 29.85 840 24.81 0.8 33.5 50 -8.3 17
05:15 1011 29.85 840 24.81 0.6 33.1 51 -8.4 17
05:20 1011 29.85 840 24.81 0.4 32.8 54 -8 17.7
05:25 1011 29.85 840 24.81 0.3 32.6 52 -8.5 16.8
05:30 1011 29.85 840 24.81 0.7 33.2 50 -8.5 16.7
05:35 1011 29.85 840 24.81 0.7 33.3 51 -8.4 16.9
05:40 1011 29.85 840 24.81 0.7 33.3 50 -8.5 16.7
05:45 1011 29.85 840 24.81 0.8 33.4 50 -8.6 16.6
05:50 1011 29.85 840 24.81 1 33.9 47 -9 15.7
05:55 1011 29.85 840 24.81 1.3 34.4 49 -8.3 17.1
06:00 1011 29.85 840 24.81 0.9 33.7 48 -8.8 16.2
06:05 1011 29.85 840 24.81 1.1 34 49 -8.3 17
06:10 1011 29.85 840 24.81 0.9 33.6 48 -9 15.8
06:15 1011 29.85 840 24.81 1.3 34.3 46 -9.1 15.7
06:20 1011 29.85 840 24.81 1.6 34.9 47 -8.6 16.5
06:25 1011 29.85 840 24.81 1.3 34.3 49 -8.4 16.9
06:30 1011 29.85 840 24.81 1.3 34.3 48 -8.6 16.6
06:35 1011 29.85 840 24.81 1.3 34.4 47 -8.9 16
06:40 1011 29.85 840 24.81 1.5 34.8 43 -9.7 14.6
06:45 1010 29.83 840 24.81 2.2 35.9 43 -9.1 15.7
06:50 1011 29.85 840 24.81 2.1 35.8 43 -9.1 15.7
06:55 1010 29.83 840 24.81 2.5 36.5 42 -9.1 15.6
07:00 1010 29.83 840 24.81 2.4 36.3 44 -8.6 16.5
07:05 1011 29.85 840 24.81 2.2 36 43 -9 15.8
07:10 1010 29.83 840 24.81 2.5 36.4 45 -8.3 17.1
07:15 1010 29.83 840 24.81 2.3 36.1 46 -8.3 17
07:20 1010 29.83 840 24.81 2.9 37.3 43 -8.4 16.9
07:25 1010 29.83 840 24.81 2.7 36.9 45 -8 17.6
07:30 1010 29.83 840 24.81 2.6 36.6 46 -7.9 17.8
07:35 1010 29.83 840 24.81 3.2 37.7 44 -7.9 17.9
07:40 1010 29.83 840 24.81 2.5 36.5 47 -7.7 18.1
07:45 1010 29.83 840 24.81 2.4 36.4 47 -7.9 17.8
07:50 1010 29.83 840 24.81 2.6 36.8 46 -7.8 18
07:55 1010 29.83 840 24.81 2.3 36.2 50 -7 19.4
08:00 1010 29.83 840 24.81 2.2 35.9 51 -6.9 19.6
08:05 1010 29.83 840 24.81 1.8 35.2 53 -6.8 19.7
08:10 1010 29.83 839 24.78 1.8 35.2 53 -6.7 19.9
08:15 1010 29.83 839 24.78 2.1 35.7 52 -6.9 19.7
08:20 1010 29.83 840 24.81 2.2 35.9 51 -6.9 19.6
08:25 1010 29.83 840 24.81 2.1 35.8 50 -7.2 19.1
08:30 1010 29.83 839 24.78 2.2 35.9 51 -7 19.3
08:35 1010 29.83 839 24.78 2.6 36.6 49 -7.1 19.2
08:40 1010 29.83 839 24.78 2.8 37 50 -6.6 20.2
08:45 1010 29.83 839 24.78 2.7 36.9 49 -7.1 19.3
08:50 1010 29.83 839 24.78 2.8 37 48 -7.2 19
08:55 1010 29.83 839 24.78 3 37.4 48 -6.9 19.6
09:00 1010 29.83 839 24.78 3.3 37.9 47 -7 19.4
09:05 1010 29.83 839 24.78 3.8 38.8 47 -6.7 20
09:10 1010 29.83 839 24.78 3.9 39.1 47 -6.4 20.5
09:15 1010 29.83 839 24.78 4.2 39.6 45 -6.6 20.2
09:20 1010 29.83 839 24.78 4.8 40.7 45 -6.2 20.8
09:25 1010 29.83 839 24.78 5.7 42.2 42 -6.4 20.6
09:30 1010 29.83 839 24.78 6 42.8 42 -6 21.2
09:35 1010 29.83 839 24.78 6.3 43.3 42 -5.8 21.6
09:40 1010 29.83 839 24.78 6.9 44.4 40 -5.9 21.3
09:45 1010 29.83 839 24.78 7.1 44.8 40 -5.5 22.2
09:50 1009 29.8 839 24.78 7.4 45.2 40 -5.4 22.3
09:55 1009 29.8 839 24.78 7.4 45.4 41 -4.8 23.4
10:00 1009 29.8 838 24.75 7.7 45.8 39 -5.3 22.5
10:05 1009 29.8 838 24.75 7.5 45.5 41 -4.9 23.2
10:10 1009 29.8 838 24.75 7.6 45.7 41 -4.7 23.5
10:15 1009 29.8 838 24.75 7.9 46.3 40 -4.9 23.2
10:20 1009 29.8 838 24.75 8.4 47.2 37 -5.3 22.5
10:25 1009 29.8 839 24.78 8.9 48 35 -5.7 21.8
10:30 1009 29.8 839 24.78 9 48.3 36 -5.1 22.8
10:35 1009 29.8 838 24.75 8.1 46.6 38 -5.4 22.3
10:40 1009 29.8 838 24.75 8.2 46.7 37 -5.5 22
10:45 1009 29.8 838 24.75 7.9 46.2 39 -5.4 22.4
10:50 1009 29.8 838 24.75 8.2 46.8 38 -5.2 22.6
10:55 1009 29.8 838 24.75 8.3 46.9 38 -5.2 22.6
11:00 1009 29.8 838 24.75 8.3 46.9 39 -4.8 23.4
11:05 1009 29.8 838 24.75 8.4 47.1 38 -5.2 22.6
11:10 1009 29.8 838 24.75 8.4 47 42 -3.9 25.1
11:15 1009 29.8 838 24.75 7.7 45.9 42 -4.2 24.4
11:20 1009 29.8 838 24.75 7.6 45.7 46 -3.4 25.9
11:25 1009 29.8 838 24.75 7 44.6 47 -3.6 25.6
11:30 1009 29.8 838 24.75 7.2 44.9 45 -4 24.8
11:35 1009 29.8 838 24.75 7.6 45.6 42 -4.4 24.1
11:40 1009 29.8 838 24.75 7.4 45.2 42 -4.8 23.4
11:45 1009 29.8 838 24.75 7.4 45.4 43 -4.2 24.4
11:50 1009 29.8 838 24.75 7.5 45.6 43 -4.1 24.5
11:55 1009 29.8 838 24.75 7.4 45.4 43 -4.3 24.3
12:00 1008 29.77 838 24.75 7.9 46.2 42 -4.3 24.2
12:05 1008 29.77 838 24.75 8 46.4 41 -4.3 24.3
12:10 1008 29.77 838 24.75 7.9 46.3 41 -4.5 23.9
12:15 1008 29.77 838 24.75 8 46.3 40 -4.7 23.6
12:20 1008 29.77 838 24.75 8.1 46.7 40 -4.5 23.9
12:25 1008 29.77 838 24.75 8.1 46.6 41 -4.4 24.2
12:30 1008 29.77 838 24.75 8.2 46.8 42 -4.1 24.7
12:35 1009 29.8 838 24.75 8.1 46.5 44 -3.4 25.8
12:40 1009 29.8 838 24.75 7.7 45.8 46 -3.2 26.3
12:45 1008 29.77 838 24.75 7.5 45.5 47 -3.1 26.4
12:50 1008 29.77 837 24.72 7.5 45.6 47 -3.1 26.4
12:55 1008 29.77 837 24.72 7.6 45.7 47 -2.9 26.8
13:00 1008 29.77 837 24.72 7.6 45.7 48 -2.8 27
13:05 1008 29.77 837 24.72 7.7 45.9 47 -2.9 26.8
13:10 1008 29.77 837 24.72 8 46.4 44 -3.4 25.9
13:15 1007 29.74 837 24.72 8.5 47.2 44 -2.9 26.7
13:20 1007 29.74 836 24.69 9.1 48.4 43 -2.9 26.8
13:25 1007 29.74 837 24.72 9.3 48.8 42 -3 26.6
13:30 1007 29.74 836 24.69 9.1 48.4 41 -3.4 25.9
13:35 1007 29.74 836 24.69 8.7 47.7 41 -3.7 25.4
13:40 1007 29.74 836 24.69 8.7 47.7 41 -3.9 25
13:45 1007 29.74 836 24.69 8.8 47.8 40 -3.9 24.9
13:50 1007 29.74 836 24.69 8.9 48 41 -3.7 25.4
13:55 1007 29.74 836 24.69 8.9 47.9 41 -3.5 25.7
14:00 1006 29.71 836 24.69 8.7 47.7 43 -3.3 26.1
14:05 1006 29.71 836 24.69 8.6 47.4 43 -3.3 26
14:10 1007 29.74 836 24.69 8.8 47.8 41 -3.6 25.5
14:15 1007 29.74 836 24.69 9.4 48.8 40 -3.5 25.7
14:20 1007 29.74 836 24.69 9.8 49.6 41 -2.8 26.9
14:25 1007 29.74 836 24.69 9.9 49.8 42 -2.5 27.5
14:30 1007 29.74 836 24.69 9.5 49.1 41 -3 26.5
14:35 1007 29.74 836 24.69 9.4 49 39 -3.7 25.4
14:40 1007 29.74 836 24.69 9.6 49.3 39 -3.6 25.4
14:45 1007 29.74 836 24.69 9.6 49.3 38 -3.8 25.1
14:50 1007 29.74 836 24.69 9.7 49.5 38 -4 24.8
14:55 1007 29.74 836 24.69 9.9 49.7 38 -3.9 25
15:00 1007 29.74 836 24.69 9.8 49.7 37 -4.1 24.7
15:05 1007 29.74 836 24.69 9.9 49.9 36 -4.3 24.3
15:10 1007 29.74 836 24.69 10.1 50.2 38 -3.6 25.6
15:15 1007 29.74 836 24.69 10 49.9 38 -3.8 25.2
15:20 1007 29.74 836 24.69 10.1 50.2 37 -4 24.8
15:25 1007 29.74 836 24.69 10.2 50.3 36 -4.1 24.6
15:30 1007 29.74 836 24.69 10.3 50.6 36 -4.1 24.7
15:35 1007 29.74 836 24.69 10.2 50.3 35 -4.5 23.9
15:40 1007 29.74 836 24.69 10.1 50.2 35 -4.5 23.8
15:45 1007 29.74 836 24.69 10.2 50.3 36 -4.3 24.2
15:50 1007 29.74 836 24.69 10.3 50.5 34 -5 22.9
15:55 1007 29.74 836 24.69 10.7 51.3 34 -4.6 23.8
16:00 1007 29.74 836 24.69 10.4 50.7 34 -4.7 23.6
16:05 1007 29.74 836 24.69 10.2 50.4 34 -4.7 23.5
16:10 1007 29.74 836 24.69 10.2 50.3 34 -5 23.1
16:15 1007 29.74 836 24.69 10.3 50.5 35 -4.3 24.2
16:20 1007 29.74 836 24.69 10.1 50.1 33 -5.3 22.5
16:25 1007 29.74 836 24.69 10.2 50.3 34 -4.9 23.2
16:30 1007 29.74 836 24.69 10.4 50.7 34 -4.8 23.3
16:35 1007 29.74 836 24.69 10.5 50.9 34 -4.6 23.7
16:40 1007 29.74 837 24.72 10.3 50.5 35 -4.4 24.1
16:45 1007 29.74 837 24.72 9.9 49.7 37 -4 24.8
16:50 1008 29.77 837 24.72 9.5 49.1 37 -4.3 24.2
16:55 1008 29.77 837 24.72 9.5 49.1 38 -4.1 24.7
17:00 1008 29.77 837 24.72 9.5 49 37 -4.4 24.1
17:05 1008 29.77 837 24.72 9.4 48.9 37 -4.7 23.6
17:10 1008 29.77 837 24.72 9.3 48.7 39 -3.9 25
17:15 1008 29.77 837 24.72 9 48.3 38 -4.5 24
17:20 1008 29.77 837 24.72 9.2 48.6 36 -4.9 23.2
17:25 1008 29.77 838 24.75 9.4 48.9 36 -4.8 23.4
17:30 1008 29.77 838 24.75 9.2 48.6 38 -4.5 23.9
17:35 1009 29.8 838 24.75 9 48.1 38 -4.4 24.1
17:40 1009 29.8 838 24.75 8.8 47.9 42 -3.5 25.7
17:45 1009 29.8 838 24.75 8.4 47.2 44 -2.9 26.7
17:50 1009 29.8 838 24.75 7.9 46.3 46 -3 26.6
17:55 1009 29.8 838 24.75 7.9 46.2 46 -2.9 26.8
18:00 1009 29.8 838 24.75 7.7 45.9 48 -2.5 27.4
18:05 1009 29.8 838 24.75 7.6 45.6 49 -2.5 27.5
18:10 1009 29.8 838 24.75 7.4 45.4 50 -2.2 28
18:15 1009 29.8 838 24.75 7.3 45.1 51 -2.2 28
18:20 1009 29.8 838 24.75 7.2 44.9 51 -2.2 28
18:25 1009 29.8 838 24.75 7.1 44.8 51 -2.3 27.8
18:30 1009 29.8 838 24.75 7.1 44.7 51 -2.4 27.7
18:35 1009 29.8 838 24.75 7 44.6 48 -3.3 26
18:40 1009 29.8 838 24.75 7.2 45 47 -3.4 25.9
18:45 1009 29.8 838 24.75 7.1 44.8 48 -3.2 26.2
18:50 1009 29.8 838 24.75 7 44.6 46 -3.7 25.3
18:55 1009 29.8 839 24.78 7.3 45.1 44 -4.1 24.6
19:00 1009 29.8 839 24.78 7.4 45.3 45 -3.8 25.2
19:05 1009 29.8 839 24.78 7.2 44.9 45 -4 24.7
19:10 1009 29.8 839 24.78 7.2 45 45 -3.9 25
19:15 1010 29.83 839 24.78 7.3 45.2 42 -4.7 23.6
19:20 1010 29.83 839 24.78 7.5 45.6 43 -4.2 24.4
19:25 1010 29.83 839 24.78 7.6 45.7 40 -5 23
19:30 1010 29.83 839 24.78 7.8 46 42 -4.5 23.9
19:35 1010 29.83 839 24.78 7.7 45.8 43 -4.1 24.5
19:40 1010 29.83 839 24.78 7.5 45.5 44 -4 24.7
19:45 1010 29.83 839 24.78 7.4 45.4 45 -3.9 25
19:50 1010 29.83 839 24.78 7.3 45.1 44 -4 24.7
19:55 1010 29.83 839 24.78 7.3 45.2 44 -4 24.8
20:00 1009 29.8 839 24.78 7.3 45.2 44 -4 24.8
20:05 1009 29.8 839 24.78 7.2 45 45 -3.9 25
20:10 1009 29.8 839 24.78 6.9 44.4 47 -3.6 25.5
20:15 1010 29.83 839 24.78 6.6 43.9 48 -3.5 25.6
20:20 1010 29.83 839 24.78 6.4 43.5 49 -3.5 25.7
20:25 1010 29.83 839 24.78 6.4 43.6 49 -3.4 25.8
20:30 1010 29.83 839 24.78 6.4 43.5 51 -3.1 26.4
20:35 1010 29.83 839 24.78 6.2 43.2 51 -3.2 26.2
20:40 1010 29.83 839 24.78 6.3 43.3 50 -3.3 26.1
20:45 1010 29.83 839 24.78 6.3 43.3 51 -3.2 26.2
20:50 1010 29.83 839 24.78 6.3 43.4 50 -3.3 26.1
20:55 1009 29.8 839 24.78 6.5 43.7 50 -3.2 26.2
21:00 1009 29.8 838 24.75 6.5 43.7 50 -3.2 26.2
21:05 1009 29.8 838 24.75 6.4 43.5 50 -3.1 26.4
21:10 1009 29.8 838 24.75 6.3 43.3 51 -3.2 26.3
21:15 1009 29.8 838 24.75 6.4 43.5 50 -3.2 26.2
21:20 1009 29.8 838 24.75 6.4 43.4 52 -2.8 27
21:25 1009 29.8 839 24.78 5.5 41.9 55 -2.9 26.8
21:30 1009 29.8 839 24.78 5.3 41.6 55 -3 26.6
21:35 1010 29.83 839 24.78 5.4 41.7 54 -3.1 26.5
21:40 1010 29.83 839 24.78 5.4 41.7 55 -2.8 26.9
21:45 1010 29.83 839 24.78 5.3 41.6 56 -2.7 27.1
21:50 1010 29.83 839 24.78 5.4 41.6 57 -2.6 27.4
21:55 1010 29.83 839 24.78 5.4 41.7 57 -2.6 27.4
22:00 1010 29.83 839 24.78 5.4 41.8 56 -2.6 27.3
22:05 1010 29.83 839 24.78 5.6 42.2 55 -2.6 27.3
22:10 1010 29.83 839 24.78 5.7 42.3 57 -2.2 28
22:15 1010 29.83 839 24.78 5.8 42.4 55 -2.5 27.5
22:20 1010 29.83 839 24.78 5.6 42.2 55 -2.7 27.2
22:25 1010 29.83 839 24.78 5.6 42.1 55 -2.7 27.1
22:30 1010 29.83 839 24.78 5.7 42.3 55 -2.5 27.5
22:35 1010 29.83 839 24.78 5.4 41.7 57 -2.5 27.4
22:40 1010 29.83 839 24.78 5.4 41.7 56 -2.6 27.3
22:45 1010 29.83 839 24.78 5.4 41.8 55 -2.8 26.9
22:50 1010 29.83 839 24.78 5.6 42 54 -2.9 26.7
22:55 1010 29.83 839 24.78 5.7 42.2 54 -2.9 26.7
23:00 1010 29.83 839 24.78 5.7 42.2 55 -2.6 27.4
23:05 1010 29.83 839 24.78 5.2 41.4 58 -2.4 27.7
23:10 1010 29.83 839 24.78 4.8 40.7 59 -2.5 27.5
23:15 1010 29.83 839 24.78 4.7 40.5 59 -2.6 27.3
23:20 1010 29.83 839 24.78 4.8 40.6 58 -2.7 27.1
23:25 1010 29.83 839 24.78 4.9 40.8 59 -2.4 27.6
23:30 1010 29.83 839 24.78 4.6 40.3 59 -2.7 27.2
23:35 1010 29.83 839 24.78 4.6 40.4 59 -2.6 27.3
23:40 1010 29.83 839 24.78 4.6 40.2 59 -2.8 27
23:45 1010 29.83 839 24.78 4.9 40.8 58 -2.8 27
23:50 1010 29.83 839 24.78 5.1 41.2 57 -2.6 27.2
23:55 1010 29.83 839 24.78 5.2 41.3 56 -2.9 26.7
24:00 1010 29.83 839 24.78 5.5 41.8 55 -2.9 26.8